createdAt,value
2023-01-27T00:00:27.391Z,39.28
2023-01-27T00:03:15.587Z,31.38
2023-01-27T00:05:44.804Z,32.83
2023-01-27T00:08:13.008Z,42.90
2023-01-27T00:10:40.823Z,47.58
2023-01-27T00:13:11.849Z,34.35
2023-01-27T00:15:39.850Z,45.58
2023-01-27T00:18:08.231Z,41.20
2023-01-27T00:20:35.800Z,43.75
2023-01-27T00:23:05.944Z,36.33
2023-01-27T00:25:33.619Z,42.15
2023-01-27T00:28:01.664Z,44.05
2023-01-27T00:30:29.786Z,40.00
2023-01-27T00:32:57.729Z,36.50
2023-01-27T00:35:25.668Z,45.42
2023-01-27T00:37:53.568Z,54.08
2023-01-27T00:40:23.355Z,51.08
2023-01-27T00:42:51.648Z,45.22
2023-01-27T00:45:19.075Z,53.40
2023-01-27T00:47:48.484Z,42.55
2023-01-27T00:50:16.626Z,47.53
2023-01-27T00:52:45.392Z,50.55
2023-01-27T00:55:13.976Z,47.72
2023-01-27T00:57:43.414Z,37.47
2023-01-27T01:00:12.263Z,48.47
2023-01-27T01:02:40.477Z,44.45
2023-01-27T01:05:09.025Z,44.60
2023-01-27T01:07:37.023Z,54.92
2023-01-27T01:10:05.302Z,45.72
2023-01-27T01:12:33.349Z,52.60
2023-01-27T01:15:02.753Z,52.65
2023-01-27T01:17:30.698Z,46.35
2023-01-27T01:19:58.328Z,46.92
2023-01-27T01:22:26.287Z,48.28
2023-01-27T01:24:53.840Z,58.38
2023-01-27T01:27:21.986Z,53.70
2023-01-27T01:29:49.458Z,48.13
2023-01-27T01:32:21.469Z,48.80
2023-01-27T01:34:48.955Z,53.75
2023-01-27T01:37:17.021Z,48.72
2023-01-27T01:39:44.653Z,56.17
2023-01-27T01:42:12.558Z,52.78
2023-01-27T01:44:44.556Z,49.85
2023-01-27T01:47:16.645Z,53.40
2023-01-27T01:49:47.655Z,52.05
2023-01-27T01:52:19.591Z,49.72
2023-01-27T01:54:50.801Z,50.90
2023-01-27T01:57:23.221Z,56.90
2023-01-27T01:59:54.058Z,45.65
2023-01-27T02:02:26.049Z,50.20
2023-01-27T02:05:02.704Z,47.50
2023-01-27T02:07:36.485Z,46.10
2023-01-27T02:10:04.798Z,44.72
2023-01-27T02:12:32.877Z,42.60
2023-01-27T02:15:00.390Z,52.78
2023-01-27T02:17:28.890Z,45.67
2023-01-27T02:20:06.581Z,43.50
2023-01-27T02:22:42.081Z,42.28
2023-01-27T02:25:19.875Z,48.53
2023-01-27T02:27:49.565Z,44.42
2023-01-27T02:30:17.423Z,53.90
2023-01-27T02:32:45.353Z,48.60
2023-01-27T02:35:18.765Z,43.65
2023-01-27T02:37:48.452Z,45.80
2023-01-27T02:40:16.639Z,41.67
2023-01-27T02:42:44.633Z,41.30
2023-01-27T02:45:14.031Z,42.60
2023-01-27T02:47:42.672Z,49.88
2023-01-27T02:50:11.442Z,43.50
2023-01-27T02:52:39.315Z,41.95
2023-01-27T02:55:08.089Z,43.97
2023-01-27T02:57:36.093Z,41.88
2023-01-27T03:00:04.477Z,40.33
2023-01-27T03:02:34.087Z,39.80
2023-01-27T03:05:01.668Z,32.55
2023-01-27T03:07:29.687Z,37.22
2023-01-27T03:09:57.243Z,36.55
2023-01-27T03:12:25.353Z,36.97
2023-01-27T03:14:53.083Z,37.08
2023-01-27T03:17:21.024Z,35.88
2023-01-27T03:19:50.134Z,33.70
2023-01-27T03:22:18.075Z,38.35
2023-01-27T03:24:48.514Z,35.95
2023-01-27T03:27:16.941Z,41.17
2023-01-27T03:29:44.473Z,42.60
2023-01-27T03:32:12.708Z,36.65
2023-01-27T03:34:40.229Z,34.20
2023-01-27T03:37:10.403Z,46.38
2023-01-27T03:39:37.854Z,39.15
2023-01-27T03:42:06.255Z,43.33
2023-01-27T03:44:33.759Z,34.00
2023-01-27T03:47:02.254Z,37.20
2023-01-27T03:49:30.183Z,30.58
2023-01-27T03:51:58.324Z,36.90
2023-01-27T03:54:27.580Z,38.33
2023-01-27T03:56:55.452Z,33.38
2023-01-27T03:59:23.120Z,37.70
2023-01-27T04:01:51.389Z,36.03
2023-01-27T04:04:19.038Z,33.55
2023-01-27T04:06:47.034Z,39.53
2023-01-27T04:09:19.789Z,43.60
2023-01-27T04:11:49.686Z,40.50
2023-01-27T04:14:17.365Z,34.95
2023-01-27T04:16:45.913Z,43.63
2023-01-27T04:19:14.299Z,40.60
2023-01-27T04:21:42.555Z,41.58
2023-01-27T04:24:11.962Z,34.60
2023-01-27T04:26:40.225Z,38.28
2023-01-27T04:29:09.681Z,31.92
2023-01-27T04:31:37.716Z,36.88
2023-01-27T04:34:05.438Z,30.02
2023-01-27T04:36:33.557Z,36.50
2023-01-27T04:39:01.186Z,33.38
2023-01-27T04:41:29.507Z,28.17
2023-01-27T04:43:57.361Z,30.67
2023-01-27T04:46:27.271Z,31.08
2023-01-27T04:48:54.793Z,30.35
2023-01-27T04:51:23.027Z,29.17
2023-01-27T04:53:50.791Z,26.02
2023-01-27T04:56:23.581Z,29.63
2023-01-27T04:58:51.423Z,36.33
2023-01-27T05:01:19.753Z,26.17
2023-01-27T05:03:48.964Z,29.63
2023-01-27T05:06:17.343Z,24.13
2023-01-27T05:08:44.861Z,28.77
2023-01-27T05:11:13.287Z,24.67
2023-01-27T05:13:41.439Z,26.60
2023-01-27T05:16:12.396Z,30.58
2023-01-27T05:18:41.268Z,30.15
2023-01-27T05:21:13.119Z,28.45
2023-01-27T05:23:41.192Z,33.60
2023-01-27T05:26:11.901Z,23.13
2023-01-27T05:28:40.625Z,22.98
2023-01-27T05:31:11.688Z,30.77
2023-01-27T05:33:40.159Z,26.35
2023-01-27T05:36:12.666Z,25.83
2023-01-27T05:38:40.792Z,25.27
2023-01-27T05:41:10.384Z,31.65
2023-01-27T05:43:40.228Z,22.85
2023-01-27T05:46:10.396Z,32.60
2023-01-27T05:48:41.260Z,23.33
2023-01-27T05:51:09.951Z,28.38
2023-01-27T05:53:39.264Z,23.27
2023-01-27T05:56:09.211Z,25.20
2023-01-27T05:58:36.868Z,26.45
2023-01-27T06:01:07.799Z,33.47
2023-01-27T06:03:35.704Z,30.33
2023-01-27T06:06:04.622Z,30.67
2023-01-27T06:08:32.396Z,31.23
2023-01-27T06:11:02.338Z,29.33
2023-01-27T06:13:30.219Z,25.58
2023-01-27T06:15:58.315Z,23.42
2023-01-27T06:18:26.041Z,30.55
2023-01-27T06:20:57.772Z,31.02
2023-01-27T06:23:25.981Z,27.50
2023-01-27T06:25:55.101Z,25.35
2023-01-27T06:28:29.305Z,36.05
2023-01-27T06:31:05.207Z,27.73
2023-01-27T06:33:32.806Z,33.13
2023-01-27T06:36:05.977Z,30.50
2023-01-27T06:38:33.565Z,29.02
2023-01-27T06:41:01.945Z,30.48
2023-01-27T06:43:30.967Z,27.85
2023-01-27T06:45:59.455Z,28.95
2023-01-27T06:48:27.651Z,30.15
2023-01-27T06:50:56.469Z,35.45
2023-01-27T06:53:24.914Z,30.92
2023-01-27T06:55:56.393Z,36.83
2023-01-27T06:58:23.954Z,33.55
2023-01-27T07:00:53.809Z,29.70
2023-01-27T07:03:22.495Z,28.98
2023-01-27T07:05:51.043Z,30.25
2023-01-27T07:08:18.875Z,37.30
2023-01-27T07:10:46.924Z,29.08
2023-01-27T07:13:15.292Z,32.63
2023-01-27T07:15:43.364Z,36.30
2023-01-27T07:18:13.985Z,31.35
2023-01-27T07:20:42.785Z,38.30
2023-01-27T07:23:10.925Z,34.38
2023-01-27T07:25:39.421Z,30.60
2023-01-27T07:28:14.129Z,30.75
2023-01-27T07:30:42.719Z,35.25
2023-01-27T07:33:13.748Z,30.52
2023-01-27T07:35:41.813Z,34.20
2023-01-27T07:38:10.042Z,40.80
2023-01-27T07:40:38.090Z,31.52
2023-01-27T07:43:05.693Z,30.80
2023-01-27T07:45:33.869Z,40.10
2023-01-27T07:48:02.167Z,33.30
2023-01-27T07:50:32.714Z,34.35
2023-01-27T07:53:00.440Z,38.15
2023-01-27T07:55:29.415Z,38.67
2023-01-27T07:57:57.243Z,34.13
2023-01-27T08:00:25.763Z,25.60
2023-01-27T08:02:54.804Z,36.28
2023-01-27T08:05:24.612Z,35.33
2023-01-27T08:07:56.557Z,31.42
2023-01-27T08:10:25.601Z,36.85
2023-01-27T08:12:53.399Z,40.88
2023-01-27T08:15:22.325Z,35.80
2023-01-27T08:17:54.396Z,33.70
2023-01-27T08:20:22.796Z,40.63
2023-01-27T08:22:50.300Z,36.30
2023-01-27T08:25:19.899Z,41.13
2023-01-27T08:27:50.472Z,35.65
2023-01-27T08:30:19.500Z,32.88
2023-01-27T08:32:47.077Z,40.00
2023-01-27T08:35:15.344Z,42.45
2023-01-27T08:37:42.939Z,40.63
2023-01-27T08:40:12.685Z,38.05
2023-01-27T08:42:41.913Z,39.22
2023-01-27T08:45:10.128Z,42.88
2023-01-27T08:47:37.765Z,44.58
2023-01-27T08:50:06.541Z,36.90
2023-01-27T08:52:34.309Z,40.53
2023-01-27T08:55:02.465Z,39.03
2023-01-27T08:57:30.275Z,33.97
2023-01-27T08:59:59.788Z,37.50
2023-01-27T09:02:27.468Z,41.22
2023-01-27T09:04:55.669Z,38.83
2023-01-27T09:07:23.433Z,38.80
2023-01-27T09:10:00.999Z,41.25
2023-01-27T09:12:35.426Z,36.95
2023-01-27T09:15:06.109Z,34.58
2023-01-27T09:17:33.782Z,38.25
2023-01-27T09:20:01.947Z,38.67
2023-01-27T09:22:29.458Z,39.65
2023-01-27T09:24:57.419Z,42.08
2023-01-27T09:27:38.476Z,41.08
2023-01-27T09:30:12.824Z,41.08
2023-01-27T09:32:40.899Z,35.50
2023-01-27T09:35:10.363Z,34.78
2023-01-27T09:37:44.935Z,41.35
2023-01-27T09:40:22.746Z,37.90
2023-01-27T09:43:05.553Z,31.17
2023-01-27T09:45:55.779Z,35.80
2023-01-27T09:48:49.333Z,38.10
2023-01-27T09:51:28.313Z,32.05
2023-01-27T09:54:23.513Z,32.85
2023-01-27T09:57:00.232Z,37.78
2023-01-27T09:59:49.698Z,32.65
2023-01-27T10:02:35.543Z,34.63
2023-01-27T10:05:21.394Z,35.65
2023-01-27T10:08:13.375Z,43.38
2023-01-27T10:10:52.667Z,39.22
2023-01-27T10:13:32.994Z,35.42
2023-01-27T10:16:26.836Z,35.95
2023-01-27T10:19:15.669Z,40.03
2023-01-27T10:21:54.797Z,32.83
2023-01-27T10:24:34.075Z,31.40
2023-01-27T10:27:08.986Z,35.33
2023-01-27T10:29:44.520Z,25.85
2023-01-27T10:32:24.914Z,31.60
2023-01-27T10:35:09.330Z,32.08
2023-01-27T10:37:49.199Z,34.65
2023-01-27T10:40:23.637Z,35.30
2023-01-27T10:42:59.070Z,30.42
2023-01-27T10:45:32.890Z,31.30
2023-01-27T10:48:20.176Z,32.33
2023-01-27T10:50:55.134Z,32.63
2023-01-27T10:53:29.198Z,32.05
2023-01-27T10:56:02.763Z,29.35
2023-01-27T10:58:42.737Z,32.47
2023-01-27T11:01:22.643Z,37.83
2023-01-27T11:03:57.528Z,35.50
2023-01-27T11:06:30.717Z,31.35
2023-01-27T11:09:07.677Z,31.35
2023-01-27T11:11:36.200Z,31.95
2023-01-27T11:14:19.490Z,32.80
2023-01-27T11:16:51.196Z,26.65
2023-01-27T11:19:28.780Z,32.08
2023-01-27T11:22:07.833Z,28.08
2023-01-27T11:24:45.767Z,26.20
2023-01-27T11:27:25.487Z,27.35
2023-01-27T11:32:34.645Z,25.90
2023-01-27T11:35:05.144Z,27.10
2023-01-27T11:37:37.473Z,24.95
2023-01-27T11:40:14.073Z,28.15
2023-01-27T11:42:42.663Z,27.48
2023-01-27T11:45:15.108Z,26.20
2023-01-27T11:47:45.727Z,30.35
2023-01-27T11:50:18.444Z,35.97
2023-01-27T11:52:51.265Z,24.95
2023-01-27T11:55:23.648Z,26.85
2023-01-27T12:00:25.704Z,25.73
2023-01-27T12:03:03.717Z,23.02
2023-01-27T12:05:34.860Z,27.38
2023-01-27T12:08:05.482Z,27.60
2023-01-27T12:10:34.819Z,29.45
2023-01-27T12:13:09.368Z,30.38
2023-01-27T12:15:38.285Z,26.08
2023-01-27T12:18:14.210Z,35.45
2023-01-27T12:20:44.433Z,29.65
2023-01-27T12:23:22.467Z,25.80
2023-01-27T12:25:55.067Z,31.48
2023-01-27T12:28:31.622Z,31.38
2023-01-27T12:31:07.323Z,31.40
2023-01-27T12:33:39.141Z,28.13
2023-01-27T12:36:12.926Z,31.42
2023-01-27T12:38:49.977Z,33.20
2023-01-27T12:41:23.919Z,28.42
2023-01-27T12:43:57.411Z,27.45
2023-01-27T12:46:26.965Z,26.33
2023-01-27T12:49:02.159Z,26.55
2023-01-27T12:51:38.953Z,30.73
2023-01-27T12:54:22.335Z,24.08
2023-01-27T12:56:51.351Z,28.17
2023-01-27T12:59:21.100Z,31.98
2023-01-27T13:01:59.860Z,28.27
2023-01-27T13:07:03.411Z,23.98
2023-01-27T13:09:36.187Z,22.23
2023-01-27T13:12:12.733Z,34.88
2023-01-27T13:14:42.952Z,26.35
2023-01-27T13:17:29.183Z,31.95
2023-01-27T13:20:00.538Z,27.95
2023-01-27T13:22:32.354Z,31.08
2023-01-27T13:25:03.393Z,28.20
2023-01-27T13:27:40.808Z,32.63
2023-01-27T13:30:20.103Z,37.50
2023-01-27T13:32:51.624Z,35.40
2023-01-27T13:35:24.873Z,33.85
2023-01-27T13:40:29.694Z,33.45
2023-01-27T13:43:05.860Z,39.80
2023-01-27T13:45:38.731Z,27.52
2023-01-27T13:48:14.893Z,31.05
2023-01-27T13:50:45.900Z,33.33
2023-01-27T13:53:16.396Z,37.28
2023-01-27T13:56:08.009Z,40.63
2023-01-27T13:58:46.936Z,29.63
2023-01-27T14:01:24.182Z,35.85
2023-01-27T14:04:21.392Z,31.38
2023-01-27T14:07:03.346Z,36.53
2023-01-27T14:09:46.453Z,35.40
2023-01-27T14:12:31.990Z,41.33
2023-01-27T14:15:08.427Z,40.58
2023-01-27T14:17:43.734Z,38.97
2023-01-27T14:20:38.176Z,45.50
2023-01-27T14:23:20.618Z,44.20
2023-01-27T14:25:57.105Z,49.83
2023-01-27T14:28:37.411Z,55.83
2023-01-27T14:31:12.804Z,64.53
2023-01-27T14:33:59.908Z,57.35
2023-01-27T14:36:33.360Z,59.33
2023-01-27T14:39:12.174Z,60.85
2023-01-27T14:41:46.127Z,56.53
2023-01-27T14:44:33.827Z,65.32
2023-01-27T14:47:18.846Z,56.78
2023-01-27T14:50:03.657Z,60.40
2023-01-27T14:52:41.992Z,54.55
2023-01-27T14:55:33.116Z,61.30
2023-01-27T14:58:19.485Z,66.13
2023-01-27T15:00:57.529Z,62.63
2023-01-27T15:04:04.703Z,58.50
2023-01-27T15:06:42.684Z,61.05
2023-01-27T15:09:24.368Z,64.40
2023-01-27T15:12:12.224Z,60.75
2023-01-27T15:15:05.556Z,57.65
2023-01-27T15:17:45.473Z,61.70
2023-01-27T15:23:19.313Z,63.40
2023-01-27T15:25:49.169Z,60.25
2023-01-27T15:28:20.582Z,60.60
2023-01-27T15:31:22.505Z,67.10
2023-01-27T15:33:57.235Z,57.65
2023-01-27T15:36:32.655Z,62.03
2023-01-27T15:39:16.227Z,54.17
2023-01-27T15:41:52.921Z,59.00
2023-01-27T15:44:28.673Z,58.47
2023-01-27T15:47:03.529Z,49.95
2023-01-27T15:49:41.840Z,64.05
2023-01-27T15:52:19.503Z,61.00
2023-01-27T15:54:51.712Z,60.35
2023-01-27T15:57:32.678Z,63.47
2023-01-27T16:00:05.939Z,55.05
2023-01-27T16:02:38.286Z,51.08
2023-01-27T16:05:17.465Z,52.45
2023-01-27T16:07:51.031Z,59.88
2023-01-27T16:10:22.290Z,51.13
2023-01-27T16:12:50.329Z,56.10
2023-01-27T16:15:35.647Z,52.25
2023-01-27T16:18:24.821Z,47.35
2023-01-27T16:21:00.718Z,53.38
2023-01-27T16:23:42.308Z,57.97
2023-01-27T16:26:25.399Z,60.13
2023-01-27T16:29:17.736Z,55.30
2023-01-27T16:31:51.905Z,55.88
2023-01-27T16:34:24.553Z,53.55
2023-01-27T16:37:02.813Z,45.47
2023-01-27T16:39:38.533Z,57.97
2023-01-27T16:42:16.105Z,56.50
2023-01-27T16:44:47.332Z,50.72
2023-01-27T16:47:22.515Z,47.15
2023-01-27T16:49:51.524Z,46.30
2023-01-27T16:52:40.764Z,48.67
2023-01-27T16:55:20.360Z,48.55
2023-01-27T16:57:48.275Z,50.47
2023-01-27T17:00:20.993Z,52.95
2023-01-27T17:02:50.994Z,54.40
2023-01-27T17:05:19.911Z,50.30
2023-01-27T17:08:13.074Z,47.70
2023-01-27T17:10:43.362Z,45.22
2023-01-27T17:13:26.872Z,53.75
2023-01-27T17:15:55.457Z,45.55
2023-01-27T17:18:25.389Z,45.38
2023-01-27T17:20:53.449Z,52.28
2023-01-27T17:23:29.887Z,43.67
2023-01-27T17:25:57.779Z,45.88
2023-01-27T17:28:28.432Z,41.03
2023-01-27T17:31:06.087Z,43.10
2023-01-27T17:33:39.261Z,45.13
2023-01-27T17:36:11.446Z,43.38
2023-01-27T17:38:46.931Z,48.75
2023-01-27T17:41:29.981Z,45.28
2023-01-27T17:43:58.719Z,42.17
2023-01-27T17:46:29.477Z,54.65
2023-01-27T17:49:00.827Z,49.60
2023-01-27T17:51:35.697Z,48.33
2023-01-27T17:54:20.170Z,47.13
2023-01-27T17:56:50.991Z,48.97
2023-01-27T17:59:22.098Z,48.33
2023-01-27T18:01:53.595Z,44.03
2023-01-27T18:04:22.577Z,47.35
2023-01-27T18:06:51.380Z,52.08
2023-01-27T18:09:26.541Z,45.13
2023-01-27T18:11:57.621Z,45.03
2023-01-27T18:14:26.436Z,48.28
2023-01-27T18:17:05.680Z,43.50
2023-01-27T18:19:34.108Z,43.70
2023-01-27T18:22:12.736Z,51.33
2023-01-27T18:24:50.072Z,43.58
2023-01-27T18:27:31.448Z,47.08
2023-01-27T18:30:02.968Z,41.10
2023-01-27T18:32:38.910Z,45.13
2023-01-27T18:35:25.828Z,41.30
2023-01-27T18:37:56.735Z,38.83
2023-01-27T18:40:29.107Z,45.47
2023-01-27T18:42:57.756Z,40.38
2023-01-27T18:45:27.313Z,44.83
2023-01-27T18:47:56.000Z,40.10
2023-01-27T18:50:26.115Z,41.20
2023-01-27T18:52:54.488Z,37.20
2023-01-27T18:55:24.664Z,40.97
2023-01-27T18:57:55.225Z,37.33
2023-01-27T19:00:25.862Z,36.83
2023-01-27T19:02:56.214Z,37.53
2023-01-27T19:05:27.677Z,36.55
2023-01-27T19:07:55.489Z,36.33
2023-01-27T19:10:25.797Z,36.60
2023-01-27T19:12:55.696Z,44.80
2023-01-27T19:15:24.592Z,45.00
2023-01-27T19:17:55.003Z,53.22
2023-01-27T19:20:24.692Z,39.00
2023-01-27T19:22:53.217Z,47.40
2023-01-27T19:25:21.951Z,50.00
2023-01-27T19:27:52.970Z,55.08
2023-01-27T19:30:26.319Z,45.33
2023-01-27T19:35:22.874Z,40.25
2023-01-27T19:37:51.878Z,42.97
2023-01-27T19:40:21.506Z,50.13
2023-01-27T19:42:49.313Z,44.10
2023-01-27T19:45:18.818Z,47.30
2023-01-27T19:47:48.806Z,47.78
2023-01-27T19:50:20.620Z,49.53
2023-01-27T19:52:48.367Z,47.15
2023-01-27T19:55:16.896Z,47.50
2023-01-27T19:57:45.149Z,48.67
2023-01-27T20:00:22.300Z,50.55
2023-01-27T20:02:51.859Z,46.03
2023-01-27T20:05:21.263Z,57.60
2023-01-27T20:07:49.112Z,48.70
2023-01-27T20:10:20.478Z,52.83
2023-01-27T20:12:54.404Z,52.72
2023-01-27T20:15:24.450Z,41.83
2023-01-27T20:17:54.957Z,42.90
2023-01-27T20:20:24.935Z,55.80
2023-01-27T20:22:53.058Z,52.40
2023-01-27T20:25:23.195Z,51.15
2023-01-27T20:27:52.682Z,43.55
2023-01-27T20:30:22.327Z,53.30
2023-01-27T20:32:50.581Z,51.75
2023-01-27T20:35:20.569Z,45.17
2023-01-27T20:37:49.746Z,55.45
2023-01-27T20:40:19.458Z,45.85
2023-01-27T20:42:47.469Z,42.50
2023-01-27T20:45:16.776Z,49.25
2023-01-27T20:47:49.255Z,53.00
2023-01-27T20:50:18.106Z,50.47
2023-01-27T20:52:47.890Z,32.17
2023-01-27T20:55:17.243Z,50.67
2023-01-27T20:57:45.264Z,41.42
2023-01-27T21:00:16.954Z,35.80
2023-01-27T21:02:44.894Z,46.92
2023-01-27T21:05:13.748Z,42.42
2023-01-27T21:07:41.966Z,40.92
2023-01-27T21:10:12.416Z,44.33
2023-01-27T21:12:40.112Z,46.42
2023-01-27T21:15:10.129Z,45.33
2023-01-27T21:17:38.518Z,39.63
2023-01-27T21:20:07.965Z,42.22
2023-01-27T21:22:35.788Z,40.47
2023-01-27T21:25:04.298Z,36.00
2023-01-27T21:27:34.225Z,38.28
2023-01-27T21:30:02.362Z,40.50
2023-01-27T21:32:30.077Z,44.10
2023-01-27T21:34:58.194Z,44.95
2023-01-27T21:37:26.025Z,40.78
2023-01-27T21:39:54.240Z,41.10
2023-01-27T21:42:21.866Z,41.83
2023-01-27T21:44:51.819Z,33.10
2023-01-27T21:47:20.079Z,47.75
2023-01-27T21:49:48.448Z,46.42
2023-01-27T21:52:16.042Z,46.75
2023-01-27T21:54:44.268Z,45.40
2023-01-27T21:57:11.855Z,42.53
2023-01-27T21:59:39.871Z,40.80
2023-01-27T22:02:10.980Z,40.13
2023-01-27T22:04:41.170Z,50.30
2023-01-27T22:07:09.570Z,47.28
2023-01-27T22:09:37.851Z,41.90
2023-01-27T22:12:06.803Z,36.13
2023-01-27T22:14:35.206Z,50.47
2023-01-27T22:17:03.316Z,44.53
2023-01-27T22:19:33.355Z,51.35
2023-01-27T22:22:01.103Z,42.33
2023-01-27T22:24:29.054Z,42.45
2023-01-27T22:26:56.597Z,45.33
2023-01-27T22:29:24.754Z,49.75
2023-01-27T22:31:52.474Z,48.53
2023-01-27T22:34:20.770Z,45.10
2023-01-27T22:36:49.877Z,51.50
2023-01-27T22:39:17.921Z,46.13
2023-01-27T22:41:45.853Z,42.33
2023-01-27T22:44:14.482Z,55.30
2023-01-27T22:46:42.328Z,43.67
2023-01-27T22:49:10.678Z,47.72
2023-01-27T22:51:38.707Z,44.15
2023-01-27T22:54:08.297Z,42.85
2023-01-27T22:56:35.965Z,46.08
2023-01-27T22:59:04.541Z,52.10
2023-01-27T23:01:32.203Z,46.63
2023-01-27T23:04:00.361Z,41.28
2023-01-27T23:06:27.960Z,41.28
2023-01-27T23:08:56.176Z,40.15
2023-01-27T23:11:25.281Z,53.28
2023-01-27T23:13:53.266Z,44.90
2023-01-27T23:16:20.884Z,44.60
2023-01-27T23:18:48.820Z,47.80
2023-01-27T23:21:16.524Z,48.58
2023-01-27T23:23:44.958Z,50.72
2023-01-27T23:26:12.721Z,48.33
2023-01-27T23:28:42.238Z,44.45
2023-01-27T23:31:11.563Z,54.08
2023-01-27T23:33:42.202Z,46.90
2023-01-27T23:36:11.292Z,59.97
2023-01-27T23:38:39.641Z,46.00
2023-01-27T23:41:12.620Z,41.28
2023-01-27T23:43:42.094Z,49.08
2023-01-27T23:46:10.809Z,44.90
2023-01-27T23:48:38.714Z,43.65
2023-01-27T23:51:07.888Z,45.42
2023-01-27T23:53:36.285Z,60.47
2023-01-27T23:56:04.781Z,43.72
2023-01-27T23:58:32.772Z,37.58
